createdAt,value
2018-11-20T00:01:25.736Z,65.56
2018-11-20T00:03:53.819Z,65.16
2018-11-20T00:06:21.049Z,63.14
2018-11-20T00:08:48.768Z,64.29
2018-11-20T00:11:15.505Z,65.49
2018-11-20T00:13:42.994Z,65.08
2018-11-20T00:16:10.943Z,65.43
2018-11-20T00:18:38.394Z,66.20
2018-11-20T00:21:05.755Z,65.08
2018-11-20T00:23:33.191Z,66.97
2018-11-20T00:26:00.795Z,68.06
2018-11-20T00:28:29.400Z,67.58
2018-11-20T00:30:57.197Z,67.08
2018-11-20T00:33:25.752Z,67.93
2018-11-20T00:35:53.723Z,69.32
2018-11-20T00:45:56.080Z,70.06
2018-11-20T00:48:23.890Z,68.85
2018-11-20T00:50:51.774Z,69.51
2018-11-20T00:53:19.108Z,69.58
2018-11-20T00:55:45.894Z,69.00
2018-11-20T00:58:13.616Z,68.13
2018-11-20T01:00:42.551Z,67.04
2018-11-20T01:03:10.471Z,67.27
2018-11-20T01:05:39.383Z,67.36
2018-11-20T01:08:06.576Z,67.07
2018-11-20T01:10:35.094Z,66.69
2018-11-20T01:13:02.832Z,66.74
2018-11-20T01:15:30.142Z,67.53
2018-11-20T01:20:30.317Z,67.25
2018-11-20T01:22:57.863Z,66.50
2018-11-20T01:25:25.227Z,66.81
2018-11-20T01:27:52.544Z,66.39
2018-11-20T01:30:19.638Z,66.18
2018-11-20T01:32:47.790Z,65.91
2018-11-20T01:35:14.887Z,65.87
2018-11-20T01:37:42.820Z,66.12
2018-11-20T01:40:10.882Z,66.92
2018-11-20T01:42:39.808Z,67.36
2018-11-20T01:45:07.014Z,66.59
2018-11-20T01:47:34.192Z,66.12
2018-11-20T01:50:01.441Z,65.71
2018-11-20T01:52:29.317Z,65.70
2018-11-20T01:54:55.796Z,65.27
2018-11-20T01:57:23.454Z,65.35
2018-11-20T01:59:51.430Z,66.51
2018-11-20T02:02:19.787Z,68.12
2018-11-20T02:04:47.433Z,67.52
2018-11-20T02:07:15.667Z,68.36
2018-11-20T02:09:44.056Z,69.52
2018-11-20T02:12:11.959Z,69.47
2018-11-20T02:14:38.441Z,68.16
2018-11-20T02:17:06.078Z,68.10
2018-11-20T02:19:33.951Z,67.38
2018-11-20T02:22:07.195Z,67.41
2018-11-20T02:24:35.818Z,66.90
2018-11-20T02:27:03.198Z,67.32
2018-11-20T02:29:31.339Z,68.04
2018-11-20T02:31:58.870Z,68.10
2018-11-20T02:34:26.607Z,66.84
2018-11-20T02:36:55.718Z,66.08
2018-11-20T02:39:24.326Z,66.00
2018-11-20T02:41:51.756Z,66.45
2018-11-20T02:46:52.099Z,69.52
2018-11-20T02:49:20.990Z,69.09
2018-11-20T02:51:49.509Z,68.45
2018-11-20T02:54:17.277Z,67.66
2018-11-20T02:56:43.750Z,67.46
2018-11-20T02:59:14.525Z,66.77
2018-11-20T03:01:42.060Z,66.21
2018-11-20T03:06:41.733Z,66.68
2018-11-20T03:09:10.348Z,66.05
2018-11-20T03:11:37.612Z,66.29
2018-11-20T03:14:06.323Z,65.63
2018-11-20T03:16:34.074Z,65.44
2018-11-20T03:19:02.059Z,65.29
2018-11-20T03:21:30.837Z,65.33
2018-11-20T03:23:57.870Z,66.02
2018-11-20T03:26:26.202Z,65.58
2018-11-20T03:28:54.163Z,64.68
2018-11-20T03:31:22.647Z,65.07
2018-11-20T03:33:50.618Z,66.86
2018-11-20T03:36:19.514Z,68.05
2018-11-20T03:38:48.436Z,68.21
2018-11-20T03:41:16.214Z,67.91
2018-11-20T03:43:45.341Z,66.87
2018-11-20T03:46:14.196Z,65.98
2018-11-20T03:48:41.657Z,65.22
2018-11-20T03:51:09.010Z,65.71
2018-11-20T03:56:08.621Z,65.33
2018-11-20T03:58:35.813Z,65.76
2018-11-20T04:01:03.966Z,66.86
2018-11-20T04:03:32.608Z,66.39
2018-11-20T04:06:01.267Z,65.51
2018-11-20T04:08:30.645Z,65.82
2018-11-20T04:10:59.122Z,65.13
2018-11-20T04:13:26.530Z,65.74
2018-11-20T04:15:53.610Z,65.75
2018-11-20T04:28:27.599Z,65.26
2018-11-20T04:30:55.523Z,64.18
2018-11-20T04:33:22.647Z,64.08
2018-11-20T04:35:50.251Z,62.86
2018-11-20T04:38:17.459Z,63.60
2018-11-20T04:40:44.681Z,63.73
2018-11-20T04:43:14.500Z,63.77
2018-11-20T04:45:41.717Z,64.62
2018-11-20T04:48:08.381Z,64.88
2018-11-20T04:50:36.416Z,63.49
2018-11-20T04:53:04.140Z,64.06
2018-11-20T04:55:31.433Z,63.56
2018-11-20T04:57:58.328Z,61.86
2018-11-20T05:00:25.724Z,62.61
2018-11-20T05:02:53.293Z,63.21
2018-11-20T05:05:20.676Z,62.17
2018-11-20T05:07:48.864Z,62.61
2018-11-20T05:10:16.732Z,62.66
2018-11-20T05:12:46.846Z,62.72
2018-11-20T05:15:16.506Z,63.76
2018-11-20T05:17:45.021Z,64.46
2018-11-20T05:20:12.240Z,64.86
2018-11-20T05:22:43.174Z,65.33
2018-11-20T05:25:11.800Z,64.96
2018-11-20T05:27:39.058Z,64.40
2018-11-20T05:30:06.524Z,63.94
2018-11-20T05:32:33.585Z,63.76
2018-11-20T05:35:00.882Z,63.58
2018-11-20T05:37:27.901Z,63.70
2018-11-20T05:39:55.891Z,63.85
2018-11-20T05:42:23.419Z,63.58
2018-11-20T05:44:51.255Z,64.44
2018-11-20T05:47:18.210Z,64.54
2018-11-20T05:49:45.381Z,63.98
2018-11-20T05:52:13.236Z,64.49
2018-11-20T05:54:40.718Z,64.86
2018-11-20T05:57:07.720Z,64.70
2018-11-20T05:59:36.294Z,62.80
2018-11-20T06:02:03.691Z,64.01
2018-11-20T06:04:31.007Z,63.90
2018-11-20T06:06:58.310Z,63.04
2018-11-20T06:09:26.269Z,64.09
2018-11-20T06:11:54.019Z,64.24
2018-11-20T06:14:20.486Z,63.79
2018-11-20T06:16:47.486Z,64.18
2018-11-20T06:19:14.344Z,63.23
2018-11-20T06:21:42.902Z,62.54
2018-11-20T06:24:10.046Z,63.57
2018-11-20T06:26:38.102Z,64.77
2018-11-20T06:29:05.303Z,63.65
2018-11-20T06:31:33.278Z,62.65
2018-11-20T06:34:01.052Z,62.85
2018-11-20T06:36:28.236Z,63.69
2018-11-20T06:38:56.139Z,63.75
2018-11-20T06:41:23.600Z,64.13
2018-11-20T06:43:54.113Z,62.66
2018-11-20T06:46:22.865Z,62.86
2018-11-20T06:51:22.051Z,63.68
2018-11-20T06:53:49.964Z,64.19
2018-11-20T06:56:17.791Z,63.49
2018-11-20T06:58:46.264Z,63.45
2018-11-20T07:01:12.739Z,63.35
2018-11-20T07:06:12.340Z,63.30
2018-11-20T07:08:40.042Z,62.60
2018-11-20T07:11:08.528Z,62.82
2018-11-20T07:13:35.852Z,62.58
2018-11-20T07:16:03.498Z,63.80
2018-11-20T07:18:30.915Z,63.89
2018-11-20T07:20:58.636Z,62.80
2018-11-20T07:23:26.488Z,63.83
2018-11-20T07:25:55.409Z,63.85
2018-11-20T07:28:26.086Z,64.17
2018-11-20T07:30:53.381Z,64.20
2018-11-20T07:33:21.108Z,63.52
2018-11-20T07:35:48.123Z,63.29
2018-11-20T07:38:15.265Z,63.53
2018-11-20T07:40:42.441Z,62.89
2018-11-20T07:43:09.237Z,63.34
2018-11-20T07:45:37.810Z,63.60
2018-11-20T07:48:05.266Z,63.98
2018-11-20T07:50:33.416Z,64.41
2018-11-20T07:52:59.980Z,63.82
2018-11-20T07:55:27.476Z,62.93
2018-11-20T07:57:54.789Z,63.00
2018-11-20T08:00:23.372Z,63.47
2018-11-20T08:02:51.111Z,63.90
2018-11-20T08:05:19.012Z,63.73
2018-11-20T08:07:46.071Z,63.07
2018-11-20T08:10:14.266Z,63.21
2018-11-20T08:12:41.712Z,64.08
2018-11-20T08:15:08.980Z,63.74
2018-11-20T08:20:09.396Z,64.17
2018-11-20T08:22:37.297Z,63.82
2018-11-20T08:25:04.680Z,64.20
2018-11-20T08:27:31.283Z,64.12
2018-11-20T08:29:58.754Z,64.47
2018-11-20T08:32:25.426Z,64.46
2018-11-20T08:34:56.082Z,64.51
2018-11-20T08:37:24.791Z,63.86
2018-11-20T08:39:52.242Z,64.17
2018-11-20T08:42:19.517Z,64.56
2018-11-20T08:47:19.325Z,63.95
2018-11-20T08:49:46.446Z,63.68
2018-11-20T08:52:13.829Z,63.96
2018-11-20T08:54:48.713Z,63.93
2018-11-20T08:57:16.538Z,64.27
2018-11-20T08:59:44.468Z,64.24
2018-11-20T09:02:12.499Z,64.27
2018-11-20T09:04:43.779Z,63.56
2018-11-20T09:07:10.859Z,63.64
2018-11-20T09:09:38.271Z,64.17
2018-11-20T09:12:05.759Z,64.81
2018-11-20T09:14:33.821Z,64.89
2018-11-20T09:17:02.254Z,65.64
2018-11-20T09:19:29.411Z,65.73
2018-11-20T09:21:57.226Z,65.20
2018-11-20T09:24:24.258Z,65.07
2018-11-20T09:26:51.564Z,65.07
2018-11-20T09:29:19.392Z,64.26
2018-11-20T09:31:48.120Z,64.10
2018-11-20T09:34:16.354Z,63.66
2018-11-20T09:36:43.667Z,62.97
2018-11-20T09:39:11.029Z,63.83
2018-11-20T09:41:39.005Z,64.29
2018-11-20T09:44:06.132Z,64.06
2018-11-20T09:46:33.183Z,64.40
2018-11-20T09:49:00.147Z,64.05
2018-11-20T09:51:28.001Z,64.72
2018-11-20T09:53:55.137Z,64.30
2018-11-20T09:56:22.989Z,63.86
2018-11-20T09:58:49.776Z,63.84
2018-11-20T10:01:17.290Z,62.58
2018-11-20T10:03:45.621Z,62.67
2018-11-20T10:06:13.940Z,62.77
2018-11-20T10:08:41.715Z,60.66
2018-11-20T10:11:09.870Z,60.99
2018-11-20T10:13:36.966Z,60.71
2018-11-20T10:16:04.229Z,61.30
2018-11-20T10:18:32.279Z,61.58
2018-11-20T10:20:59.943Z,61.49
2018-11-20T10:23:27.864Z,59.08
2018-11-20T10:25:56.042Z,59.44
2018-11-20T10:28:23.843Z,59.46
2018-11-20T10:30:51.616Z,60.73
2018-11-20T10:33:18.762Z,61.03
2018-11-20T10:35:49.151Z,61.42
2018-11-20T10:38:15.941Z,60.77
2018-11-20T10:40:43.950Z,60.84
2018-11-20T10:43:12.646Z,60.98
2018-11-20T10:48:16.300Z,60.42
2018-11-20T10:50:43.446Z,61.83
2018-11-20T10:53:11.018Z,61.49
2018-11-20T10:55:43.131Z,61.71
2018-11-20T10:58:11.414Z,61.05
2018-11-20T11:00:40.957Z,61.43
2018-11-20T11:03:09.070Z,60.96
2018-11-20T11:05:37.991Z,61.38
2018-11-20T11:08:06.143Z,61.18
2018-11-20T11:10:33.392Z,61.79
2018-11-20T11:13:00.977Z,60.93
2018-11-20T11:15:28.128Z,59.90
2018-11-20T11:17:55.653Z,60.77
2018-11-20T11:20:23.875Z,59.94
2018-11-20T11:22:51.360Z,60.44
2018-11-20T11:25:19.122Z,61.45
2018-11-20T11:27:47.698Z,61.98
2018-11-20T11:30:15.639Z,61.93
2018-11-20T11:32:42.912Z,62.10
2018-11-20T11:35:10.165Z,62.09
2018-11-20T11:37:38.349Z,62.45
2018-11-20T11:40:05.540Z,60.75
2018-11-20T11:42:35.764Z,60.14
2018-11-20T11:45:03.035Z,61.01
2018-11-20T11:47:30.323Z,62.11
2018-11-20T11:49:58.683Z,61.14
2018-11-20T11:52:26.078Z,60.78
2018-11-20T11:54:53.716Z,60.35
2018-11-20T11:57:21.136Z,61.26
2018-11-20T11:59:48.248Z,61.31
2018-11-20T18:08:38.337Z,66.01
2018-11-20T18:11:06.483Z,66.33
2018-11-20T18:13:32.932Z,66.00
2018-11-20T18:15:59.701Z,65.67
2018-11-20T18:18:26.163Z,65.57
2018-11-20T18:20:54.599Z,65.41
2018-11-20T18:23:23.783Z,65.36
2018-11-20T18:28:37.553Z,65.16
2018-11-20T18:31:06.460Z,65.03
2018-11-20T18:33:35.479Z,64.83
2018-11-20T18:36:04.683Z,64.40
2018-11-20T18:38:31.121Z,64.09
2018-11-20T18:41:00.502Z,64.82
2018-11-20T18:43:29.406Z,64.64
2018-11-20T18:46:00.385Z,64.53
2018-11-20T18:48:29.516Z,65.13
2018-11-20T18:50:58.467Z,65.11
2018-11-20T18:53:27.225Z,64.70
2018-11-20T18:55:53.696Z,63.63
2018-11-20T18:58:20.151Z,64.12
2018-11-20T19:00:47.438Z,64.82
2018-11-20T19:03:14.135Z,64.83
2018-11-20T19:05:40.591Z,64.65
2018-11-20T19:08:07.394Z,64.53
2018-11-20T19:10:33.802Z,64.30
2018-11-20T19:13:00.596Z,63.25
2018-11-20T19:15:29.255Z,62.46
2018-11-20T19:17:55.949Z,62.81
2018-11-20T19:20:30.589Z,62.95
2018-11-20T19:22:57.698Z,62.84
2018-11-20T19:25:26.347Z,64.07
2018-11-20T19:27:52.813Z,64.14
2018-11-20T19:30:22.545Z,63.54
2018-11-20T19:32:51.485Z,63.94
2018-11-20T19:35:17.883Z,64.45
2018-11-20T19:37:44.395Z,64.60
2018-11-20T19:40:10.783Z,64.84
2018-11-20T19:42:37.222Z,64.92
2018-11-20T19:45:06.965Z,64.98
2018-11-20T19:47:36.209Z,65.02
2018-11-20T19:50:03.389Z,65.05
2018-11-20T19:52:32.503Z,64.07
2018-11-20T19:55:04.080Z,64.38
2018-11-20T19:57:33.079Z,64.95
2018-11-20T20:00:02.299Z,64.55
2018-11-20T20:02:36.475Z,64.41
2018-11-20T20:04:59.649Z,64.07
2018-11-20T20:07:26.407Z,64.47
2018-11-20T20:09:56.378Z,64.49
2018-11-20T20:12:23.255Z,63.72
2018-11-20T20:14:52.116Z,63.31
2018-11-20T20:17:20.833Z,63.52
2018-11-20T20:19:47.642Z,63.80
2018-11-20T20:22:16.592Z,63.52
2018-11-20T20:24:43.896Z,63.99
2018-11-20T20:27:12.568Z,64.23
2018-11-20T20:29:41.519Z,63.87
2018-11-20T20:32:08.242Z,64.00
2018-11-20T20:34:34.987Z,63.79
2018-11-20T20:37:05.038Z,63.91
2018-11-20T20:39:31.829Z,63.06
2018-11-20T20:42:00.797Z,64.01
2018-11-20T20:44:27.515Z,64.37
2018-11-20T20:46:54.272Z,64.47
2018-11-20T20:49:22.877Z,64.32
2018-11-20T20:51:49.670Z,64.34
2018-11-20T20:54:18.195Z,64.55
2018-11-20T20:56:46.463Z,64.42
2018-11-20T20:59:15.361Z,64.26
2018-11-20T21:01:42.062Z,64.50
2018-11-20T21:04:10.866Z,64.92
2018-11-20T21:06:37.318Z,65.36
2018-11-20T21:09:06.223Z,64.96
2018-11-20T21:11:32.656Z,64.49
2018-11-20T21:14:00.117Z,65.39
2018-11-20T21:16:26.580Z,65.57
2018-11-20T21:18:55.579Z,65.20
2018-11-20T21:21:26.164Z,64.45
2018-11-20T21:23:52.600Z,64.37
2018-11-20T21:26:21.511Z,64.91
2018-11-20T21:28:47.961Z,65.55
2018-11-20T21:31:14.698Z,65.46
2018-11-20T21:33:43.603Z,65.27
2018-11-20T21:36:12.355Z,65.35
2018-11-20T21:38:41.284Z,65.58
2018-11-20T21:41:07.749Z,65.78
2018-11-20T21:43:36.819Z,66.45
2018-11-20T21:46:03.264Z,66.75
2018-11-20T21:48:32.961Z,66.99
2018-11-20T21:51:13.904Z,67.06
2018-11-20T21:53:43.378Z,66.72
2018-11-20T21:56:09.786Z,65.96
2018-11-20T21:58:37.126Z,65.99
2018-11-20T22:01:05.295Z,65.92
2018-11-20T22:03:31.808Z,66.01
2018-11-20T22:06:00.498Z,66.30
2018-11-20T22:08:29.895Z,66.15
2018-11-20T22:11:03.858Z,65.83
2018-11-20T22:13:30.735Z,65.84
2018-11-20T22:15:59.387Z,65.57
2018-11-20T22:18:26.166Z,65.86
2018-11-20T22:20:55.064Z,66.27
2018-11-20T22:23:24.027Z,65.12
2018-11-20T22:25:50.797Z,65.60
2018-11-20T22:28:19.536Z,65.72
2018-11-20T22:30:48.465Z,66.03
2018-11-20T22:33:17.465Z,65.17
2018-11-20T22:35:48.024Z,65.64
2018-11-20T22:38:14.443Z,66.10
2018-11-20T22:40:45.256Z,66.12
2018-11-20T22:43:11.722Z,64.34
2018-11-20T22:45:40.386Z,64.82
2018-11-20T22:48:09.094Z,65.96
2018-11-20T22:50:35.586Z,66.08
2018-11-20T22:53:04.547Z,66.73
2018-11-20T22:55:33.231Z,66.76
2018-11-20T22:58:01.369Z,66.45
2018-11-20T23:00:27.840Z,66.60
2018-11-20T23:02:56.798Z,65.17
2018-11-20T23:05:25.778Z,65.74
2018-11-20T23:07:52.163Z,65.70
2018-11-20T23:10:20.810Z,64.70
2018-11-20T23:12:57.336Z,64.70
2018-11-20T23:15:24.534Z,63.44
2018-11-20T23:17:50.990Z,64.37
2018-11-20T23:20:17.749Z,63.32
2018-11-20T23:22:45.908Z,63.45
2018-11-20T23:25:14.619Z,62.94
2018-11-20T23:27:41.376Z,63.40
2018-11-20T23:30:10.838Z,63.54
2018-11-20T23:32:44.753Z,64.70
2018-11-20T23:35:13.759Z,65.13
2018-11-20T23:37:42.652Z,65.35
2018-11-20T23:40:09.198Z,65.34
2018-11-20T23:45:07.943Z,65.05
2018-11-20T23:47:34.663Z,64.77
2018-11-20T23:50:01.369Z,64.40
2018-11-20T23:52:38.570Z,64.40
2018-11-20T23:55:04.995Z,64.37
2018-11-20T23:57:33.845Z,64.99
